Earth City, Missouri
Current Conditions -  °F | °C
As of 12:51 AM on Sunday 26 Oct 2014 (Local Time) from KSTL Reporting Station
Clear Clear  
Wind Chill: 58°   Ceiling: Unl
Heat Index: 58°   Visibility: 10mi
Dew Point: 51°   Wind: 0mph
Humidity: 78%   Direction: NA
Pressure: 30.03"   Gusts: NA
Location:  38.77°N, 90.47°W
Report Text: KSTL 260551Z 00000KT 10SM CLR 14/11 A3003 RMK AO2 SLP160 T01440106 10217 20139 402780139 58000
Loading
Personal Weather Stations






























Interactive Weather Map
Tropical Storm Tracking
New forecast layout! Learn more

10-Day Weather Forecast

Advertisements
Track Severe Weather on mobile